createdAt,value
2018-12-31T00:01:30.777Z,37.23
2018-12-31T00:04:00.114Z,45.37
2018-12-31T00:06:29.437Z,51.30
2018-12-31T00:08:58.769Z,46.47
2018-12-31T00:11:28.106Z,42.23
2018-12-31T00:13:57.434Z,49.63
2018-12-31T00:16:26.763Z,40.53
2018-12-31T00:18:56.092Z,41.20
2018-12-31T00:21:25.502Z,47.70
2018-12-31T00:23:54.821Z,43.97
2018-12-31T00:26:24.151Z,49.03
2018-12-31T00:28:53.479Z,44.43
2018-12-31T00:31:22.813Z,46.43
2018-12-31T00:33:52.137Z,47.90
2018-12-31T00:36:21.471Z,51.50
2018-12-31T00:38:50.803Z,46.77
2018-12-31T00:41:20.134Z,43.70
2018-12-31T00:43:49.461Z,44.13
2018-12-31T00:46:18.967Z,42.93
2018-12-31T00:48:48.296Z,52.73
2018-12-31T00:51:17.625Z,46.10
2018-12-31T00:53:46.958Z,41.53
2018-12-31T00:56:16.286Z,45.30
2018-12-31T00:58:45.610Z,48.80
2018-12-31T01:04:56.101Z,53.47
2018-12-31T01:07:25.433Z,44.63
2018-12-31T01:09:54.766Z,46.03
2018-12-31T01:12:24.100Z,46.97
2018-12-31T01:14:53.434Z,43.87
2018-12-31T01:17:22.719Z,44.90
2018-12-31T01:19:52.085Z,48.10
2018-12-31T01:22:21.413Z,44.63
2018-12-31T01:24:50.750Z,43.50
2018-12-31T01:27:20.065Z,63.43
2018-12-31T01:29:49.389Z,55.90
2018-12-31T01:32:18.724Z,50.33
2018-12-31T01:34:48.045Z,53.10
2018-12-31T01:37:17.373Z,44.33
2018-12-31T01:39:46.702Z,44.43
2018-12-31T01:42:16.026Z,47.40
2018-12-31T01:44:45.353Z,38.63
2018-12-31T01:47:14.690Z,41.43
2018-12-31T01:49:44.020Z,46.93
2018-12-31T01:52:47.779Z,52.00
2018-12-31T01:55:17.109Z,47.53
2018-12-31T01:57:46.433Z,46.73
2018-12-31T02:00:15.769Z,47.27
2018-12-31T02:02:45.101Z,40.80
2018-12-31T02:05:14.434Z,47.73
2018-12-31T02:07:43.757Z,47.30
2018-12-31T02:10:13.085Z,44.50
2018-12-31T02:12:42.422Z,36.77
2018-12-31T02:15:11.754Z,49.73
2018-12-31T02:17:41.077Z,51.73
2018-12-31T02:20:10.400Z,54.67
2018-12-31T02:22:39.726Z,52.67
2018-12-31T02:25:09.057Z,59.73
2018-12-31T02:27:38.390Z,54.50
2018-12-31T02:30:07.726Z,53.63
2018-12-31T02:32:37.056Z,46.33
2018-12-31T02:35:06.383Z,46.20
2018-12-31T02:37:35.769Z,44.57
2018-12-31T02:40:05.958Z,51.57
2018-12-31T02:42:35.290Z,40.53
2018-12-31T02:45:04.753Z,39.67
2018-12-31T02:47:34.078Z,38.40
2018-12-31T02:50:04.243Z,34.73
2018-12-31T02:52:33.570Z,40.60
2018-12-31T02:55:02.905Z,39.47
2018-12-31T02:57:32.230Z,38.30
2018-12-31T03:00:01.574Z,47.73
2018-12-31T03:02:31.262Z,54.13
2018-12-31T03:05:00.601Z,58.13
2018-12-31T03:07:29.930Z,61.87
2018-12-31T03:09:59.266Z,56.93
2018-12-31T03:12:28.582Z,62.67
2018-12-31T03:14:57.911Z,46.23
2018-12-31T03:17:27.246Z,45.57
2018-12-31T03:19:56.570Z,39.77
2018-12-31T03:22:25.914Z,41.03
2018-12-31T03:24:55.255Z,39.43
2018-12-31T03:27:24.578Z,46.07
2018-12-31T03:29:53.909Z,46.20
2018-12-31T03:32:23.253Z,40.20
2018-12-31T03:34:52.570Z,39.43
2018-12-31T03:37:21.897Z,43.67
2018-12-31T03:39:51.229Z,38.73
2018-12-31T03:42:20.561Z,45.87
2018-12-31T03:44:49.894Z,38.93
2018-12-31T03:47:19.226Z,36.97
2018-12-31T03:49:48.554Z,43.87
2018-12-31T03:52:17.891Z,40.23
2018-12-31T03:54:47.218Z,37.77
2018-12-31T03:57:16.552Z,34.87
2018-12-31T03:59:45.874Z,42.70
2018-12-31T04:02:15.210Z,41.63
2018-12-31T04:04:44.542Z,39.90
2018-12-31T04:07:13.878Z,43.20
2018-12-31T04:09:43.208Z,39.07
2018-12-31T04:12:12.530Z,40.43
2018-12-31T04:14:41.861Z,43.87
2018-12-31T04:17:11.185Z,40.70
2018-12-31T04:19:40.520Z,37.57
2018-12-31T04:22:09.926Z,55.90
2018-12-31T04:24:39.259Z,47.13
2018-12-31T04:27:08.591Z,43.53
2018-12-31T04:29:37.915Z,50.07
2018-12-31T04:32:07.247Z,54.80
2018-12-31T04:34:36.586Z,58.63
2018-12-31T04:37:05.924Z,68.17
2018-12-31T04:39:35.251Z,62.33
2018-12-31T04:42:04.583Z,63.70
2018-12-31T04:44:33.906Z,53.10
2018-12-31T04:47:03.249Z,58.30
2018-12-31T04:49:32.578Z,57.60
2018-12-31T04:52:01.913Z,57.03
2018-12-31T04:54:31.250Z,70.43
2018-12-31T04:57:00.581Z,54.87
2018-12-31T04:59:29.910Z,69.87
2018-12-31T05:01:59.242Z,60.73
2018-12-31T05:04:28.571Z,68.63
2018-12-31T05:06:57.898Z,81.90
2018-12-31T05:09:27.231Z,83.10
2018-12-31T05:11:56.566Z,108.90
2018-12-31T05:14:25.890Z,93.67
2018-12-31T05:16:55.229Z,102.80
2018-12-31T05:19:24.568Z,66.10
2018-12-31T05:21:53.895Z,86.07
2018-12-31T05:24:23.234Z,88.77
2018-12-31T05:26:52.550Z,79.07
2018-12-31T05:29:21.881Z,74.33
2018-12-31T05:31:51.221Z,59.03
2018-12-31T05:34:20.546Z,63.37
2018-12-31T05:36:49.869Z,57.73
2018-12-31T05:39:19.203Z,68.50
2018-12-31T05:41:48.540Z,63.53
2018-12-31T05:44:17.861Z,61.77
2018-12-31T05:46:47.195Z,60.37
2018-12-31T05:49:16.529Z,70.87
2018-12-31T05:51:45.860Z,65.13
2018-12-31T05:54:15.181Z,57.23
2018-12-31T05:56:44.517Z,69.63
2018-12-31T05:59:13.848Z,78.70
2018-12-31T06:01:43.177Z,70.73
2018-12-31T06:04:12.509Z,73.67
2018-12-31T06:06:41.837Z,67.43
2018-12-31T06:09:11.170Z,90.47
2018-12-31T06:11:40.501Z,72.20
2018-12-31T06:14:09.829Z,81.40
2018-12-31T06:16:39.162Z,74.20
2018-12-31T06:19:08.493Z,65.73
2018-12-31T06:21:37.822Z,66.50
2018-12-31T06:24:07.145Z,76.13
2018-12-31T06:26:36.473Z,78.93
2018-12-31T06:29:05.801Z,79.03
2018-12-31T06:31:35.129Z,82.07
2018-12-31T06:34:04.467Z,73.57
2018-12-31T06:36:33.802Z,71.87
2018-12-31T06:39:03.131Z,74.10
2018-12-31T06:41:32.462Z,81.40
2018-12-31T06:44:01.786Z,67.30
2018-12-31T06:46:31.121Z,70.57
2018-12-31T06:49:00.447Z,75.30
2018-12-31T06:51:29.782Z,73.37
2018-12-31T06:53:59.097Z,87.83
2018-12-31T06:56:28.430Z,83.80
2018-12-31T06:58:57.764Z,77.03
2018-12-31T07:01:27.086Z,67.87
2018-12-31T07:03:56.418Z,79.03
2018-12-31T07:06:25.758Z,76.03
2018-12-31T07:08:55.081Z,81.97
2018-12-31T07:11:24.419Z,71.07
2018-12-31T07:13:53.750Z,65.73
2018-12-31T07:16:23.079Z,65.13
2018-12-31T07:18:52.404Z,64.03
2018-12-31T07:21:21.729Z,59.60
2018-12-31T07:23:51.064Z,59.20
2018-12-31T07:26:20.394Z,52.83
2018-12-31T07:28:49.737Z,50.77
2018-12-31T07:31:19.059Z,56.90
2018-12-31T07:33:48.404Z,59.07
2018-12-31T07:36:17.734Z,58.63
2018-12-31T07:38:47.062Z,56.03
2018-12-31T07:41:16.392Z,50.10
2018-12-31T07:43:45.726Z,61.00
2018-12-31T07:46:15.053Z,63.67
2018-12-31T07:48:44.393Z,56.33
2018-12-31T07:51:13.709Z,62.47
2018-12-31T07:53:43.046Z,61.20
2018-12-31T07:56:12.375Z,59.50
2018-12-31T07:58:41.710Z,59.63
2018-12-31T08:01:11.040Z,54.50
2018-12-31T08:03:40.375Z,45.80
2018-12-31T08:06:09.709Z,76.62
2018-12-31T08:08:39.033Z,60.50
2018-12-31T08:11:08.362Z,65.30
2018-12-31T08:13:37.689Z,57.43
2018-12-31T08:16:07.012Z,59.27
2018-12-31T08:18:36.346Z,57.60
2018-12-31T08:21:05.673Z,61.50
2018-12-31T08:23:35.003Z,60.23
2018-12-31T08:26:04.329Z,49.77
2018-12-31T08:28:33.658Z,58.20
2018-12-31T08:31:02.987Z,64.30
2018-12-31T08:33:32.320Z,66.63
2018-12-31T08:36:01.649Z,63.53
2018-12-31T08:38:30.977Z,63.47
2018-12-31T08:41:00.314Z,75.57
2018-12-31T08:43:29.642Z,65.67
2018-12-31T08:45:58.974Z,58.57
2018-12-31T08:48:28.302Z,69.30
2018-12-31T08:50:57.645Z,58.83
2018-12-31T08:53:26.958Z,59.77
2018-12-31T08:55:56.294Z,66.93
2018-12-31T08:58:25.613Z,68.90
2018-12-31T09:00:54.945Z,66.20
2018-12-31T09:03:24.281Z,67.43
2018-12-31T09:05:53.601Z,75.23
2018-12-31T09:08:22.930Z,70.13
2018-12-31T09:10:52.257Z,67.27
2018-12-31T09:13:21.586Z,74.50
2018-12-31T09:15:50.923Z,75.03
2018-12-31T09:18:20.254Z,64.03
2018-12-31T09:20:49.582Z,69.87
2018-12-31T09:23:18.902Z,66.50
2018-12-31T09:25:48.242Z,65.47
2018-12-31T09:28:17.570Z,74.77
2018-12-31T09:30:46.906Z,66.50
2018-12-31T09:33:16.229Z,66.63
2018-12-31T09:35:45.566Z,70.90
2018-12-31T09:38:14.902Z,56.03
2018-12-31T09:40:44.291Z,56.20
2018-12-31T09:43:13.628Z,60.00
2018-12-31T09:45:42.964Z,50.83
2018-12-31T09:48:12.284Z,56.87
2018-12-31T09:50:41.613Z,51.63
2018-12-31T09:53:12.592Z,42.43
2018-12-31T09:55:42.158Z,42.40
2018-12-31T09:58:11.491Z,40.20
2018-12-31T10:00:40.826Z,42.00
2018-12-31T10:03:10.160Z,51.30
2018-12-31T10:05:39.486Z,43.77
2018-12-31T10:08:08.805Z,39.83
2018-12-31T10:10:38.137Z,34.07
2018-12-31T10:13:07.465Z,34.77
2018-12-31T10:15:36.797Z,38.10
2018-12-31T10:18:06.137Z,40.00
2018-12-31T10:20:35.456Z,40.70
2018-12-31T10:23:04.781Z,45.10
2018-12-31T10:25:34.123Z,46.00
2018-12-31T10:28:03.627Z,46.23
2018-12-31T10:30:32.958Z,40.27
2018-12-31T10:33:02.293Z,42.07
2018-12-31T10:35:31.618Z,38.60
2018-12-31T10:38:00.968Z,41.90
2018-12-31T10:40:30.302Z,43.07
2018-12-31T10:42:59.651Z,44.50
2018-12-31T10:45:29.035Z,47.07
2018-12-31T10:47:58.406Z,40.37
2018-12-31T10:50:27.744Z,41.63
2018-12-31T10:52:57.078Z,37.30
2018-12-31T10:55:26.405Z,34.83
2018-12-31T10:57:55.742Z,31.40
2018-12-31T11:00:25.141Z,28.40
2018-12-31T11:02:59.393Z,30.67
2018-12-31T11:05:28.720Z,27.23
2018-12-31T11:07:58.049Z,27.63
2018-12-31T11:10:27.385Z,24.23
2018-12-31T11:12:56.720Z,22.50
2018-12-31T11:15:26.038Z,23.63
2018-12-31T11:17:56.671Z,22.87
2018-12-31T11:20:26.184Z,26.23
2018-12-31T11:22:55.518Z,24.27
2018-12-31T11:25:24.850Z,21.90
2018-12-31T11:27:54.182Z,23.90
2018-12-31T11:30:23.509Z,19.70
2018-12-31T11:32:57.754Z,21.83
2018-12-31T11:35:27.085Z,20.07
2018-12-31T11:37:56.410Z,18.23
2018-12-31T11:40:25.746Z,18.43
2018-12-31T11:42:55.068Z,17.00
2018-12-31T11:45:24.404Z,17.03
2018-12-31T11:47:53.727Z,18.70
2018-12-31T11:50:23.049Z,16.70
2018-12-31T11:52:52.377Z,17.07
2018-12-31T11:55:21.701Z,17.83
2018-12-31T11:57:51.027Z,15.70
2018-12-31T12:00:20.366Z,18.73
2018-12-31T12:02:49.700Z,16.73
2018-12-31T12:05:19.022Z,17.50
2018-12-31T12:07:48.350Z,18.63
2018-12-31T12:10:17.681Z,18.17
2018-12-31T12:12:47.013Z,15.37
2018-12-31T12:15:16.338Z,15.50
2018-12-31T12:17:45.663Z,19.47
2018-12-31T12:20:15.265Z,16.77
2018-12-31T12:22:44.604Z,17.77
2018-12-31T12:25:13.930Z,17.10
2018-12-31T12:27:43.253Z,15.10
2018-12-31T12:30:12.599Z,15.93
2018-12-31T12:32:42.306Z,16.13
2018-12-31T12:35:11.626Z,16.37
2018-12-31T12:37:48.279Z,15.80
2018-12-31T12:40:11.996Z,15.17
2018-12-31T12:42:41.326Z,16.80
2018-12-31T12:45:10.669Z,16.90
2018-12-31T12:47:40.006Z,16.93
2018-12-31T12:50:09.341Z,16.77
2018-12-31T12:52:38.677Z,15.17
2018-12-31T12:55:07.989Z,17.00
2018-12-31T12:57:37.314Z,17.73
2018-12-31T13:00:07.014Z,14.90
2018-12-31T13:02:36.341Z,12.93
2018-12-31T13:05:06.173Z,16.15
2018-12-31T13:07:35.497Z,14.23
2018-12-31T13:10:06.294Z,15.73
2018-12-31T13:12:35.634Z,14.53
2018-12-31T13:15:06.098Z,12.10
2018-12-31T13:17:35.430Z,16.67
2018-12-31T13:20:04.998Z,16.67
2018-12-31T13:22:34.321Z,15.77
2018-12-31T13:25:03.718Z,15.43
2018-12-31T13:27:33.046Z,16.60
2018-12-31T13:30:02.369Z,16.77
2018-12-31T13:32:31.747Z,15.57
2018-12-31T13:35:01.098Z,16.77
2018-12-31T13:37:30.427Z,15.87
2018-12-31T13:39:59.747Z,13.43
2018-12-31T13:42:29.078Z,16.37
2018-12-31T13:44:58.440Z,15.87
2018-12-31T13:47:27.797Z,17.37
2018-12-31T13:49:57.173Z,15.03
2018-12-31T13:52:45.842Z,15.97
2018-12-31T13:55:15.164Z,16.03
2018-12-31T13:57:44.490Z,16.03
2018-12-31T14:00:13.826Z,15.33
2018-12-31T14:02:43.157Z,16.27
2018-12-31T14:05:12.853Z,15.83
2018-12-31T14:07:42.254Z,15.67
2018-12-31T14:10:11.585Z,16.70
2018-12-31T14:12:41.762Z,19.20
2018-12-31T14:15:11.165Z,15.83
2018-12-31T14:17:40.493Z,18.80
2018-12-31T14:20:09.834Z,22.77
2018-12-31T14:22:54.138Z,19.07
2018-12-31T14:25:23.461Z,24.30
2018-12-31T14:27:52.790Z,19.00
2018-12-31T14:30:22.199Z,21.83
2018-12-31T14:32:51.529Z,22.83
2018-12-31T14:35:20.861Z,23.93
2018-12-31T14:37:50.570Z,23.67
2018-12-31T14:40:19.894Z,24.60
2018-12-31T14:42:49.227Z,23.60
2018-12-31T14:45:18.553Z,32.50
2018-12-31T14:47:47.890Z,30.00
2018-12-31T14:50:17.493Z,28.80
2018-12-31T14:52:46.821Z,27.80
2018-12-31T14:55:16.150Z,25.30
2018-12-31T14:57:45.482Z,31.40
2018-12-31T15:00:14.895Z,29.33
2018-12-31T15:02:44.502Z,26.80
2018-12-31T15:05:13.841Z,26.97
2018-12-31T15:07:43.178Z,28.73
2018-12-31T15:10:12.506Z,31.47
2018-12-31T15:12:41.846Z,32.57
2018-12-31T15:15:11.170Z,32.33
2018-12-31T15:17:40.506Z,28.80
2018-12-31T15:20:10.071Z,30.63
2018-12-31T15:22:39.509Z,29.87
2018-12-31T15:25:08.837Z,37.83
2018-12-31T15:27:38.178Z,32.83
2018-12-31T15:30:08.173Z,34.93
2018-12-31T15:32:37.514Z,41.83
2018-12-31T15:35:06.846Z,37.27
2018-12-31T15:37:36.173Z,37.23
2018-12-31T15:40:07.980Z,41.70
2018-12-31T15:42:37.319Z,40.67
2018-12-31T15:45:07.190Z,44.33
2018-12-31T15:47:36.521Z,40.83
2018-12-31T15:50:06.665Z,39.50
2018-12-31T15:52:55.346Z,38.30
2018-12-31T15:55:24.678Z,35.90
2018-12-31T15:57:54.001Z,39.23
2018-12-31T16:00:23.340Z,42.17
2018-12-31T16:02:52.678Z,36.80
2018-12-31T16:05:22.005Z,34.07
2018-12-31T16:07:51.342Z,63.43
2018-12-31T16:10:20.678Z,47.00
2018-12-31T16:12:50.002Z,41.57
2018-12-31T16:15:19.344Z,37.23
2018-12-31T16:17:48.678Z,35.43
2018-12-31T16:20:18.083Z,39.80
2018-12-31T16:22:47.406Z,33.30
2018-12-31T16:25:16.743Z,33.10
2018-12-31T16:27:46.100Z,30.00
2018-12-31T16:30:15.435Z,27.40
2018-12-31T16:32:44.759Z,31.60
2018-12-31T16:35:14.094Z,30.63
2018-12-31T16:37:43.426Z,28.97
2018-12-31T16:40:12.762Z,28.63
2018-12-31T16:42:42.093Z,32.40
2018-12-31T16:45:11.422Z,30.80
2018-12-31T16:47:40.755Z,28.63
2018-12-31T16:50:10.091Z,32.80
2018-12-31T16:52:39.493Z,27.97
2018-12-31T16:55:08.826Z,31.57
2018-12-31T16:57:38.154Z,35.73
2018-12-31T17:00:08.329Z,28.87
2018-12-31T17:02:37.664Z,26.47
2018-12-31T17:05:07.057Z,27.60
2018-12-31T17:07:36.394Z,25.60
2018-12-31T17:10:08.812Z,27.70
2018-12-31T17:12:38.143Z,27.63
2018-12-31T17:15:07.482Z,22.17
2018-12-31T17:17:36.821Z,19.57
2018-12-31T17:20:06.731Z,29.17
2018-12-31T17:22:36.053Z,27.50
2018-12-31T17:25:06.310Z,23.15
2018-12-31T17:27:35.638Z,26.13
2018-12-31T17:30:06.310Z,22.50
2018-12-31T17:32:35.647Z,27.20
2018-12-31T17:35:05.211Z,27.70
2018-12-31T17:37:34.846Z,28.07
2018-12-31T17:40:04.318Z,20.00
2018-12-31T17:42:33.642Z,25.30
2018-12-31T17:45:02.967Z,18.63
2018-12-31T17:47:32.290Z,25.47
2018-12-31T17:50:01.808Z,22.23
2018-12-31T17:52:31.135Z,25.53
2018-12-31T17:55:00.457Z,23.43
2018-12-31T17:57:29.787Z,25.83
2018-12-31T17:59:59.117Z,26.90
2018-12-31T18:02:28.724Z,27.83
2018-12-31T18:04:58.057Z,14.20
2018-12-31T18:07:27.383Z,16.50
2018-12-31T18:09:56.709Z,20.40
2018-12-31T18:12:26.033Z,18.53
2018-12-31T18:14:55.451Z,16.10
2018-12-31T18:17:24.774Z,15.77
2018-12-31T18:19:54.098Z,20.47
2018-12-31T18:22:23.426Z,23.57
2018-12-31T18:24:52.770Z,19.33
2018-12-31T18:27:22.094Z,17.40
2018-12-31T18:29:51.422Z,17.67
2018-12-31T18:32:20.754Z,20.13
2018-12-31T18:34:50.095Z,19.07
2018-12-31T18:37:19.417Z,37.50
2018-12-31T18:39:49.490Z,20.47
2018-12-31T18:42:18.957Z,22.80
2018-12-31T18:44:48.293Z,19.30
2018-12-31T18:47:17.625Z,19.50
2018-12-31T18:49:46.962Z,18.17
2018-12-31T18:52:16.294Z,18.10
2018-12-31T18:54:45.623Z,19.23
2018-12-31T18:57:14.959Z,21.30
2018-12-31T18:59:44.295Z,18.23
2018-12-31T19:02:13.630Z,15.50
2018-12-31T19:04:42.958Z,17.87
2018-12-31T19:07:12.285Z,15.43
2018-12-31T19:09:41.626Z,22.73
2018-12-31T19:12:12.114Z,20.23
2018-12-31T19:14:41.667Z,25.90
2018-12-31T19:17:11.235Z,23.77
2018-12-31T19:19:41.674Z,19.20
2018-12-31T19:22:11.043Z,20.60
2018-12-31T19:24:40.370Z,24.30
2018-12-31T19:27:09.710Z,17.43
2018-12-31T19:29:39.037Z,21.63
2018-12-31T19:32:08.365Z,25.77
2018-12-31T19:34:37.721Z,20.50
2018-12-31T19:37:07.061Z,17.90
2018-12-31T19:39:36.390Z,25.50
2018-12-31T19:42:05.725Z,22.03
2018-12-31T19:44:35.962Z,22.43
2018-12-31T19:47:06.912Z,19.00
2018-12-31T19:49:36.808Z,21.63
2018-12-31T19:52:06.207Z,22.67
2018-12-31T19:54:36.455Z,37.13
2018-12-31T19:57:06.007Z,161.73
2018-12-31T19:59:35.378Z,30.77
2018-12-31T20:02:04.781Z,22.00
2018-12-31T20:04:34.453Z,25.30
2018-12-31T20:07:04.572Z,53.27
2018-12-31T20:09:34.108Z,23.73
2018-12-31T20:12:03.534Z,20.70
2018-12-31T20:14:32.997Z,27.20
2018-12-31T20:17:02.913Z,41.83
2018-12-31T20:19:32.694Z,20.30
2018-12-31T20:22:02.376Z,25.23
2018-12-31T20:24:31.790Z,23.70
2018-12-31T20:27:01.153Z,28.23
2018-12-31T20:29:31.909Z,20.50
2018-12-31T20:32:09.218Z,65.10
2018-12-31T20:34:38.923Z,75.13
2018-12-31T20:37:08.352Z,23.27
2018-12-31T20:39:37.890Z,24.37
2018-12-31T20:42:07.679Z,25.43
2018-12-31T20:44:37.798Z,23.80
2018-12-31T20:47:10.266Z,23.67
2018-12-31T20:49:43.248Z,22.53
2018-12-31T20:52:12.613Z,22.63
2018-12-31T20:54:41.974Z,23.10
2018-12-31T20:57:11.442Z,19.43
2018-12-31T20:59:40.798Z,21.00
2018-12-31T21:02:10.143Z,28.37
2018-12-31T21:04:39.735Z,22.27
2018-12-31T21:07:10.050Z,20.53
2018-12-31T21:09:39.518Z,18.83
2018-12-31T21:12:09.110Z,19.70
2018-12-31T21:14:38.643Z,22.97
2018-12-31T21:17:08.181Z,16.93
2018-12-31T21:19:38.742Z,17.90
2018-12-31T21:22:09.081Z,18.33
2018-12-31T21:24:39.493Z,23.07
2018-12-31T21:27:09.309Z,14.00
2018-12-31T21:29:38.792Z,14.70
2018-12-31T21:32:08.341Z,14.40
2018-12-31T21:34:38.140Z,11.43
2018-12-31T21:37:07.735Z,21.13
2018-12-31T21:39:37.083Z,13.93
2018-12-31T21:42:06.763Z,13.73
2018-12-31T21:44:36.174Z,19.37
2018-12-31T21:47:05.546Z,13.13
2018-12-31T21:49:34.874Z,12.30
2018-12-31T21:52:04.243Z,11.97
2018-12-31T21:54:33.565Z,14.03
2018-12-31T21:57:03.046Z,10.73
2018-12-31T21:59:33.455Z,13.77
2018-12-31T22:02:05.710Z,13.33
2018-12-31T22:04:36.518Z,13.50
2018-12-31T22:07:09.768Z,12.80
2018-12-31T22:09:42.884Z,11.67
2018-12-31T22:12:12.417Z,11.23
2018-12-31T22:14:41.746Z,13.20
2018-12-31T22:17:11.038Z,11.33
2018-12-31T22:19:40.606Z,12.13
2018-12-31T22:22:09.938Z,13.17
2018-12-31T22:24:39.266Z,10.60
2018-12-31T22:27:08.621Z,12.03
2018-12-31T22:29:37.951Z,13.30
2018-12-31T22:32:07.658Z,12.20
2018-12-31T22:34:37.077Z,11.77
2018-12-31T22:37:06.404Z,12.47
2018-12-31T22:39:35.754Z,14.63
2018-12-31T22:42:06.362Z,14.50
2018-12-31T22:44:36.592Z,18.17
2018-12-31T22:47:07.088Z,16.10
2018-12-31T22:49:36.474Z,13.03
2018-12-31T22:52:05.798Z,15.30
2018-12-31T22:54:36.646Z,15.43
2018-12-31T22:57:06.113Z,16.70
2018-12-31T22:59:35.446Z,15.33
2018-12-31T23:02:04.919Z,15.10
2018-12-31T23:04:34.260Z,162.83
2018-12-31T23:07:03.609Z,140.53
2018-12-31T23:09:40.926Z,212.07
2018-12-31T23:12:04.339Z,26.77
2018-12-31T23:14:33.671Z,53.97
2018-12-31T23:17:03.068Z,41.83
2018-12-31T23:19:32.402Z,340.83
2018-12-31T23:22:01.743Z,75.23
2018-12-31T23:24:31.070Z,43.33
2018-12-31T23:27:00.397Z,78.27
2018-12-31T23:29:29.738Z,73.67
2018-12-31T23:31:59.093Z,87.17
2018-12-31T23:34:28.426Z,31.80
2018-12-31T23:36:57.774Z,24.43
2018-12-31T23:39:27.114Z,25.73
2018-12-31T23:41:56.494Z,26.77
2018-12-31T23:44:25.822Z,31.07
2018-12-31T23:46:55.155Z,30.10
2018-12-31T23:49:24.478Z,42.10
2018-12-31T23:51:53.818Z,40.63
2018-12-31T23:54:23.151Z,44.50
2018-12-31T23:56:52.477Z,43.83
2018-12-31T23:59:21.805Z,46.70
